sensor_id;sensor_type;location;lat;lon;timestamp;P1;durP1;ratioP1;P2;durP2;ratioP2
45065;SDS011;30830;53.704;10.004;2023-04-15T00:01:25;6.20;;;3.72;;
45065;SDS011;30830;53.704;10.004;2023-04-15T00:03:51;5.75;;;4.13;;
45065;SDS011;30830;53.704;10.004;2023-04-15T00:06:18;4.32;;;3.70;;
45065;SDS011;30830;53.704;10.004;2023-04-15T00:08:45;5.53;;;4.07;;
45065;SDS011;30830;53.704;10.004;2023-04-15T00:11:11;4.55;;;3.72;;
45065;SDS011;30830;53.704;10.004;2023-04-15T00:13:36;5.72;;;4.35;;
45065;SDS011;30830;53.704;10.004;2023-04-15T00:16:03;4.97;;;4.22;;
45065;SDS011;30830;53.704;10.004;2023-04-15T00:18:30;5.20;;;3.95;;
45065;SDS011;30830;53.704;10.004;2023-04-15T00:20:56;4.88;;;4.13;;
45065;SDS011;30830;53.704;10.004;2023-04-15T00:23:21;5.00;;;4.35;;
45065;SDS011;30830;53.704;10.004;2023-04-15T00:25:56;5.28;;;4.18;;
45065;SDS011;30830;53.704;10.004;2023-04-15T00:28:22;4.82;;;3.80;;
45065;SDS011;30830;53.704;10.004;2023-04-15T00:30:47;5.43;;;4.93;;
45065;SDS011;30830;53.704;10.004;2023-04-15T00:33:13;6.72;;;4.38;;
45065;SDS011;30830;53.704;10.004;2023-04-15T00:35:40;7.45;;;5.00;;
45065;SDS011;30830;53.704;10.004;2023-04-15T00:38:06;6.90;;;5.22;;
45065;SDS011;30830;53.704;10.004;2023-04-15T00:40:34;5.68;;;4.55;;
45065;SDS011;30830;53.704;10.004;2023-04-15T00:43:00;6.85;;;5.68;;
45065;SDS011;30830;53.704;10.004;2023-04-15T00:45:26;5.72;;;5.05;;
45065;SDS011;30830;53.704;10.004;2023-04-15T00:47:54;6.53;;;5.00;;
45065;SDS011;30830;53.704;10.004;2023-04-15T00:50:20;6.80;;;5.68;;
45065;SDS011;30830;53.704;10.004;2023-04-15T00:52:46;9.13;;;5.95;;
45065;SDS011;30830;53.704;10.004;2023-04-15T00:55:12;5.75;;;4.80;;
45065;SDS011;30830;53.704;10.004;2023-04-15T00:57:38;7.55;;;6.00;;
45065;SDS011;30830;53.704;10.004;2023-04-15T01:00:04;6.72;;;5.43;;
45065;SDS011;30830;53.704;10.004;2023-04-15T01:02:33;6.50;;;5.15;;
45065;SDS011;30830;53.704;10.004;2023-04-15T01:05:00;6.28;;;5.25;;
45065;SDS011;30830;53.704;10.004;2023-04-15T01:07:26;7.43;;;5.10;;
45065;SDS011;30830;53.704;10.004;2023-04-15T01:09:51;7.15;;;5.18;;
45065;SDS011;30830;53.704;10.004;2023-04-15T01:12:17;9.00;;;5.60;;
45065;SDS011;30830;53.704;10.004;2023-04-15T01:14:44;5.70;;;4.85;;
45065;SDS011;30830;53.704;10.004;2023-04-15T01:17:10;8.43;;;5.20;;
45065;SDS011;30830;53.704;10.004;2023-04-15T01:19:36;7.28;;;6.20;;
45065;SDS011;30830;53.704;10.004;2023-04-15T01:22:02;7.28;;;5.13;;
45065;SDS011;30830;53.704;10.004;2023-04-15T01:24:29;7.18;;;5.50;;
45065;SDS011;30830;53.704;10.004;2023-04-15T01:26:57;6.70;;;5.47;;
45065;SDS011;30830;53.704;10.004;2023-04-15T01:29:23;6.50;;;4.95;;
45065;SDS011;30830;53.704;10.004;2023-04-15T01:31:52;5.95;;;4.75;;
45065;SDS011;30830;53.704;10.004;2023-04-15T01:34:19;6.93;;;5.40;;
45065;SDS011;30830;53.704;10.004;2023-04-15T01:36:45;5.78;;;5.15;;
45065;SDS011;30830;53.704;10.004;2023-04-15T01:39:10;9.63;;;5.65;;
45065;SDS011;30830;53.704;10.004;2023-04-15T01:41:36;5.82;;;4.95;;
45065;SDS011;30830;53.704;10.004;2023-04-15T01:44:02;6.85;;;5.35;;
45065;SDS011;30830;53.704;10.004;2023-04-15T01:46:27;7.15;;;5.82;;
45065;SDS011;30830;53.704;10.004;2023-04-15T01:48:53;5.15;;;4.65;;
45065;SDS011;30830;53.704;10.004;2023-04-15T01:51:19;6.55;;;5.50;;
45065;SDS011;30830;53.704;10.004;2023-04-15T01:53:44;7.32;;;5.88;;
45065;SDS011;30830;53.704;10.004;2023-04-15T01:56:10;6.55;;;5.35;;
45065;SDS011;30830;53.704;10.004;2023-04-15T01:58:36;10.13;;;6.15;;
45065;SDS011;30830;53.704;10.004;2023-04-15T02:01:02;8.35;;;5.72;;
45065;SDS011;30830;53.704;10.004;2023-04-15T02:03:28;7.43;;;5.57;;
45065;SDS011;30830;53.704;10.004;2023-04-15T02:05:54;6.43;;;5.22;;
45065;SDS011;30830;53.704;10.004;2023-04-15T02:08:19;7.97;;;6.07;;
45065;SDS011;30830;53.704;10.004;2023-04-15T02:10:45;7.13;;;6.03;;
45065;SDS011;30830;53.704;10.004;2023-04-15T02:13:10;10.20;;;6.20;;
45065;SDS011;30830;53.704;10.004;2023-04-15T02:15:36;9.65;;;6.55;;
45065;SDS011;30830;53.704;10.004;2023-04-15T02:18:01;8.07;;;6.38;;
45065;SDS011;30830;53.704;10.004;2023-04-15T02:20:28;8.10;;;6.35;;
45065;SDS011;30830;53.704;10.004;2023-04-15T02:22:54;9.63;;;6.68;;
45065;SDS011;30830;53.704;10.004;2023-04-15T02:25:21;10.15;;;7.25;;
45065;SDS011;30830;53.704;10.004;2023-04-15T02:27:46;10.10;;;7.53;;
45065;SDS011;30830;53.704;10.004;2023-04-15T02:30:12;11.05;;;7.60;;
45065;SDS011;30830;53.704;10.004;2023-04-15T02:32:37;9.00;;;6.78;;
45065;SDS011;30830;53.704;10.004;2023-04-15T02:35:04;12.15;;;7.72;;
45065;SDS011;30830;53.704;10.004;2023-04-15T02:37:31;10.52;;;6.88;;
45065;SDS011;30830;53.704;10.004;2023-04-15T02:40:01;11.85;;;7.88;;
45065;SDS011;30830;53.704;10.004;2023-04-15T02:42:26;11.95;;;7.88;;
45065;SDS011;30830;53.704;10.004;2023-04-15T02:44:54;12.27;;;8.02;;
45065;SDS011;30830;53.704;10.004;2023-04-15T02:47:20;11.75;;;7.97;;
45065;SDS011;30830;53.704;10.004;2023-04-15T02:49:45;11.38;;;8.40;;
45065;SDS011;30830;53.704;10.004;2023-04-15T02:52:11;12.65;;;7.85;;
45065;SDS011;30830;53.704;10.004;2023-04-15T02:54:37;12.02;;;7.68;;
45065;SDS011;30830;53.704;10.004;2023-04-15T02:57:03;13.43;;;8.32;;
45065;SDS011;30830;53.704;10.004;2023-04-15T02:59:30;9.35;;;7.63;;
45065;SDS011;30830;53.704;10.004;2023-04-15T03:01:56;10.77;;;7.65;;
45065;SDS011;30830;53.704;10.004;2023-04-15T03:04:24;11.90;;;8.20;;
45065;SDS011;30830;53.704;10.004;2023-04-15T03:06:50;13.23;;;9.13;;
45065;SDS011;30830;53.704;10.004;2023-04-15T03:09:16;11.95;;;8.68;;
45065;SDS011;30830;53.704;10.004;2023-04-15T03:11:41;15.10;;;8.30;;
45065;SDS011;30830;53.704;10.004;2023-04-15T03:14:07;13.63;;;8.50;;
45065;SDS011;30830;53.704;10.004;2023-04-15T03:16:32;13.70;;;9.65;;
45065;SDS011;30830;53.704;10.004;2023-04-15T03:18:58;16.27;;;10.18;;
45065;SDS011;30830;53.704;10.004;2023-04-15T03:21:23;15.70;;;9.80;;
45065;SDS011;30830;53.704;10.004;2023-04-15T03:23:50;14.90;;;9.15;;
45065;SDS011;30830;53.704;10.004;2023-04-15T03:26:25;14.68;;;9.65;;
45065;SDS011;30830;53.704;10.004;2023-04-15T03:28:55;16.02;;;10.02;;
45065;SDS011;30830;53.704;10.004;2023-04-15T03:31:21;15.07;;;11.13;;
45065;SDS011;30830;53.704;10.004;2023-04-15T03:33:47;18.83;;;11.27;;
45065;SDS011;30830;53.704;10.004;2023-04-15T03:36:13;16.95;;;11.38;;
45065;SDS011;30830;53.704;10.004;2023-04-15T03:38:39;18.35;;;11.02;;
45065;SDS011;30830;53.704;10.004;2023-04-15T03:41:04;19.63;;;12.20;;
45065;SDS011;30830;53.704;10.004;2023-04-15T03:43:30;16.65;;;11.80;;
45065;SDS011;30830;53.704;10.004;2023-04-15T03:45:55;21.05;;;13.10;;
45065;SDS011;30830;53.704;10.004;2023-04-15T03:48:21;22.83;;;13.88;;
45065;SDS011;30830;53.704;10.004;2023-04-15T03:50:46;21.48;;;13.70;;
45065;SDS011;30830;53.704;10.004;2023-04-15T03:53:12;24.88;;;14.32;;
45065;SDS011;30830;53.704;10.004;2023-04-15T03:55:39;20.25;;;13.13;;
45065;SDS011;30830;53.704;10.004;2023-04-15T03:58:05;24.92;;;14.25;;
45065;SDS011;30830;53.704;10.004;2023-04-15T04:00:30;23.75;;;14.45;;
45065;SDS011;30830;53.704;10.004;2023-04-15T04:02:56;22.95;;;14.40;;
45065;SDS011;30830;53.704;10.004;2023-04-15T04:05:22;22.02;;;14.85;;
45065;SDS011;30830;53.704;10.004;2023-04-15T04:07:48;26.30;;;15.52;;
45065;SDS011;30830;53.704;10.004;2023-04-15T04:10:13;25.83;;;14.77;;
45065;SDS011;30830;53.704;10.004;2023-04-15T04:12:39;25.00;;;15.50;;
45065;SDS011;30830;53.704;10.004;2023-04-15T04:15:05;24.40;;;15.20;;
45065;SDS011;30830;53.704;10.004;2023-04-15T04:17:31;28.27;;;16.63;;
45065;SDS011;30830;53.704;10.004;2023-04-15T04:19:56;28.50;;;16.38;;
45065;SDS011;30830;53.704;10.004;2023-04-15T04:22:22;26.48;;;15.50;;
45065;SDS011;30830;53.704;10.004;2023-04-15T04:24:48;29.30;;;17.45;;
45065;SDS011;30830;53.704;10.004;2023-04-15T04:27:13;33.38;;;17.65;;
45065;SDS011;30830;53.704;10.004;2023-04-15T04:29:39;34.42;;;18.60;;
45065;SDS011;30830;53.704;10.004;2023-04-15T04:32:05;31.13;;;18.00;;
45065;SDS011;30830;53.704;10.004;2023-04-15T04:34:30;33.25;;;18.33;;
45065;SDS011;30830;53.704;10.004;2023-04-15T04:36:56;35.90;;;19.98;;
45065;SDS011;30830;53.704;10.004;2023-04-15T04:39:22;38.22;;;18.33;;
45065;SDS011;30830;53.704;10.004;2023-04-15T04:41:47;33.58;;;18.67;;
45065;SDS011;30830;53.704;10.004;2023-04-15T04:44:13;29.88;;;18.55;;
45065;SDS011;30830;53.704;10.004;2023-04-15T04:46:39;33.72;;;19.60;;
45065;SDS011;30830;53.704;10.004;2023-04-15T04:49:05;34.88;;;19.65;;
45065;SDS011;30830;53.704;10.004;2023-04-15T04:51:30;31.48;;;19.77;;
45065;SDS011;30830;53.704;10.004;2023-04-15T04:53:56;33.28;;;20.85;;
45065;SDS011;30830;53.704;10.004;2023-04-15T04:56:22;35.78;;;21.60;;
45065;SDS011;30830;53.704;10.004;2023-04-15T04:58:48;34.90;;;21.33;;
45065;SDS011;30830;53.704;10.004;2023-04-15T05:01:13;33.10;;;20.27;;
45065;SDS011;30830;53.704;10.004;2023-04-15T05:03:39;38.25;;;20.63;;
45065;SDS011;30830;53.704;10.004;2023-04-15T05:06:05;37.42;;;22.15;;
45065;SDS011;30830;53.704;10.004;2023-04-15T05:08:32;39.05;;;21.95;;
45065;SDS011;30830;53.704;10.004;2023-04-15T05:10:58;33.15;;;20.15;;
45065;SDS011;30830;53.704;10.004;2023-04-15T05:13:23;34.90;;;21.10;;
45065;SDS011;30830;53.704;10.004;2023-04-15T05:15:49;33.10;;;19.70;;
45065;SDS011;30830;53.704;10.004;2023-04-15T05:18:15;37.38;;;22.70;;
45065;SDS011;30830;53.704;10.004;2023-04-15T05:20:41;38.70;;;23.10;;
45065;SDS011;30830;53.704;10.004;2023-04-15T05:23:06;31.38;;;20.02;;
45065;SDS011;30830;53.704;10.004;2023-04-15T05:25:32;37.58;;;21.75;;
45065;SDS011;30830;53.704;10.004;2023-04-15T05:27:57;38.17;;;23.05;;
45065;SDS011;30830;53.704;10.004;2023-04-15T05:30:23;34.03;;;21.92;;
45065;SDS011;30830;53.704;10.004;2023-04-15T05:32:48;36.40;;;21.92;;
45065;SDS011;30830;53.704;10.004;2023-04-15T05:35:14;35.53;;;20.83;;
45065;SDS011;30830;53.704;10.004;2023-04-15T05:37:40;38.88;;;22.55;;
45065;SDS011;30830;53.704;10.004;2023-04-15T05:40:06;33.90;;;20.67;;
45065;SDS011;30830;53.704;10.004;2023-04-15T05:42:33;32.95;;;19.52;;
45065;SDS011;30830;53.704;10.004;2023-04-15T05:44:59;39.80;;;21.80;;
45065;SDS011;30830;53.704;10.004;2023-04-15T05:47:25;30.13;;;20.13;;
45065;SDS011;30830;53.704;10.004;2023-04-15T05:49:51;38.63;;;21.70;;
45065;SDS011;30830;53.704;10.004;2023-04-15T05:52:16;38.03;;;23.38;;
45065;SDS011;30830;53.704;10.004;2023-04-15T05:54:42;33.13;;;21.73;;
45065;SDS011;30830;53.704;10.004;2023-04-15T05:57:07;34.88;;;21.50;;
45065;SDS011;30830;53.704;10.004;2023-04-15T05:59:33;38.40;;;23.85;;
45065;SDS011;30830;53.704;10.004;2023-04-15T06:01:58;41.83;;;23.20;;
45065;SDS011;30830;53.704;10.004;2023-04-15T06:04:24;40.20;;;22.63;;
45065;SDS011;30830;53.704;10.004;2023-04-15T06:06:50;40.97;;;25.20;;
45065;SDS011;30830;53.704;10.004;2023-04-15T06:09:16;41.92;;;23.02;;
45065;SDS011;30830;53.704;10.004;2023-04-15T06:11:41;40.08;;;24.70;;
45065;SDS011;30830;53.704;10.004;2023-04-15T06:14:07;38.83;;;25.73;;
45065;SDS011;30830;53.704;10.004;2023-04-15T06:16:32;48.25;;;27.15;;
45065;SDS011;30830;53.704;10.004;2023-04-15T06:18:58;43.80;;;25.50;;
45065;SDS011;30830;53.704;10.004;2023-04-15T06:21:23;47.97;;;26.77;;
45065;SDS011;30830;53.704;10.004;2023-04-15T06:23:49;48.80;;;28.88;;
45065;SDS011;30830;53.704;10.004;2023-04-15T06:26:15;48.10;;;29.10;;
45065;SDS011;30830;53.704;10.004;2023-04-15T06:28:40;47.75;;;29.52;;
45065;SDS011;30830;53.704;10.004;2023-04-15T06:31:06;46.13;;;28.23;;
45065;SDS011;30830;53.704;10.004;2023-04-15T06:33:31;44.17;;;28.08;;
45065;SDS011;30830;53.704;10.004;2023-04-15T06:35:57;46.03;;;29.27;;
45065;SDS011;30830;53.704;10.004;2023-04-15T06:38:22;48.03;;;29.25;;
45065;SDS011;30830;53.704;10.004;2023-04-15T06:40:48;45.08;;;28.88;;
45065;SDS011;30830;53.704;10.004;2023-04-15T06:43:13;51.33;;;30.50;;
45065;SDS011;30830;53.704;10.004;2023-04-15T06:45:39;50.55;;;29.40;;
45065;SDS011;30830;53.704;10.004;2023-04-15T06:48:04;44.22;;;29.70;;
45065;SDS011;30830;53.704;10.004;2023-04-15T06:50:30;51.58;;;30.65;;
45065;SDS011;30830;53.704;10.004;2023-04-15T06:52:56;43.22;;;28.58;;
45065;SDS011;30830;53.704;10.004;2023-04-15T06:55:22;44.67;;;29.67;;
45065;SDS011;30830;53.704;10.004;2023-04-15T06:57:47;53.70;;;31.60;;
45065;SDS011;30830;53.704;10.004;2023-04-15T07:00:13;53.40;;;31.33;;
45065;SDS011;30830;53.704;10.004;2023-04-15T07:02:39;48.33;;;31.38;;
45065;SDS011;30830;53.704;10.004;2023-04-15T07:05:05;51.97;;;31.63;;
45065;SDS011;30830;53.704;10.004;2023-04-15T07:07:31;52.28;;;32.10;;
45065;SDS011;30830;53.704;10.004;2023-04-15T07:09:57;47.72;;;30.35;;
45065;SDS011;30830;53.704;10.004;2023-04-15T07:12:22;49.10;;;30.52;;
45065;SDS011;30830;53.704;10.004;2023-04-15T07:14:48;51.80;;;31.70;;
45065;SDS011;30830;53.704;10.004;2023-04-15T07:17:13;50.30;;;30.50;;
45065;SDS011;30830;53.704;10.004;2023-04-15T07:19:39;53.13;;;32.85;;
45065;SDS011;30830;53.704;10.004;2023-04-15T07:22:05;54.20;;;32.70;;
45065;SDS011;30830;53.704;10.004;2023-04-15T07:24:30;53.10;;;32.42;;
45065;SDS011;30830;53.704;10.004;2023-04-15T07:26:56;52.38;;;31.25;;
45065;SDS011;30830;53.704;10.004;2023-04-15T07:29:22;52.15;;;32.17;;
45065;SDS011;30830;53.704;10.004;2023-04-15T07:31:47;54.25;;;33.70;;
45065;SDS011;30830;53.704;10.004;2023-04-15T07:34:13;53.33;;;32.80;;
45065;SDS011;30830;53.704;10.004;2023-04-15T07:36:38;50.80;;;30.27;;
45065;SDS011;30830;53.704;10.004;2023-04-15T07:39:04;58.78;;;33.15;;
45065;SDS011;30830;53.704;10.004;2023-04-15T07:41:30;51.13;;;32.50;;
45065;SDS011;30830;53.704;10.004;2023-04-15T07:43:55;53.92;;;31.38;;
45065;SDS011;30830;53.704;10.004;2023-04-15T07:46:21;54.60;;;32.90;;
45065;SDS011;30830;53.704;10.004;2023-04-15T07:48:48;50.95;;;30.63;;
45065;SDS011;30830;53.704;10.004;2023-04-15T07:51:14;51.35;;;32.90;;
45065;SDS011;30830;53.704;10.004;2023-04-15T07:53:41;54.80;;;31.60;;
45065;SDS011;30830;53.704;10.004;2023-04-15T07:56:07;52.63;;;31.48;;
45065;SDS011;30830;53.704;10.004;2023-04-15T07:58:32;50.13;;;30.98;;
45065;SDS011;30830;53.704;10.004;2023-04-15T08:00:58;49.88;;;30.85;;
45065;SDS011;30830;53.704;10.004;2023-04-15T08:03:23;52.25;;;31.80;;
45065;SDS011;30830;53.704;10.004;2023-04-15T08:05:49;48.97;;;31.17;;
45065;SDS011;30830;53.704;10.004;2023-04-15T08:08:14;47.58;;;30.73;;
45065;SDS011;30830;53.704;10.004;2023-04-15T08:10:40;52.47;;;35.10;;
45065;SDS011;30830;53.704;10.004;2023-04-15T08:13:06;50.85;;;34.00;;
45065;SDS011;30830;53.704;10.004;2023-04-15T08:15:32;51.30;;;31.95;;
45065;SDS011;30830;53.704;10.004;2023-04-15T08:17:57;43.60;;;28.77;;
45065;SDS011;30830;53.704;10.004;2023-04-15T08:20:25;47.20;;;29.77;;
45065;SDS011;30830;53.704;10.004;2023-04-15T08:22:50;47.78;;;31.15;;
45065;SDS011;30830;53.704;10.004;2023-04-15T08:25:17;43.80;;;28.52;;
45065;SDS011;30830;53.704;10.004;2023-04-15T08:27:44;44.40;;;28.30;;
45065;SDS011;30830;53.704;10.004;2023-04-15T08:30:10;46.78;;;30.27;;
45065;SDS011;30830;53.704;10.004;2023-04-15T08:32:36;43.28;;;30.42;;
45065;SDS011;30830;53.704;10.004;2023-04-15T08:35:02;41.53;;;29.08;;
45065;SDS011;30830;53.704;10.004;2023-04-15T08:37:27;43.85;;;29.10;;
45065;SDS011;30830;53.704;10.004;2023-04-15T08:39:53;45.13;;;29.83;;
45065;SDS011;30830;53.704;10.004;2023-04-15T08:42:26;50.13;;;30.08;;
45065;SDS011;30830;53.704;10.004;2023-04-15T08:44:58;43.10;;;29.85;;
45065;SDS011;30830;53.704;10.004;2023-04-15T08:47:25;44.63;;;30.05;;
45065;SDS011;30830;53.704;10.004;2023-04-15T08:49:55;41.40;;;29.63;;
45065;SDS011;30830;53.704;10.004;2023-04-15T08:52:23;49.78;;;31.02;;
45065;SDS011;30830;53.704;10.004;2023-04-15T08:54:50;44.85;;;29.10;;
45065;SDS011;30830;53.704;10.004;2023-04-15T08:57:22;48.17;;;29.38;;
45065;SDS011;30830;53.704;10.004;2023-04-15T08:59:52;49.25;;;30.50;;
45065;SDS011;30830;53.704;10.004;2023-04-15T09:02:22;43.63;;;29.75;;
45065;SDS011;30830;53.704;10.004;2023-04-15T09:04:49;51.65;;;31.35;;
45065;SDS011;30830;53.704;10.004;2023-04-15T09:07:15;45.60;;;30.23;;
45065;SDS011;30830;53.704;10.004;2023-04-15T09:09:41;48.42;;;30.52;;
45065;SDS011;30830;53.704;10.004;2023-04-15T09:12:07;44.83;;;29.10;;
45065;SDS011;30830;53.704;10.004;2023-04-15T09:14:33;47.05;;;30.98;;
45065;SDS011;30830;53.704;10.004;2023-04-15T09:17:02;48.13;;;29.95;;
45065;SDS011;30830;53.704;10.004;2023-04-15T09:19:28;49.33;;;31.10;;
45065;SDS011;30830;53.704;10.004;2023-04-15T09:21:55;45.03;;;27.88;;
45065;SDS011;30830;53.704;10.004;2023-04-15T09:24:23;47.08;;;30.15;;
45065;SDS011;30830;53.704;10.004;2023-04-15T09:26:51;44.75;;;29.13;;
45065;SDS011;30830;53.704;10.004;2023-04-15T09:29:20;45.30;;;28.95;;
45065;SDS011;30830;53.704;10.004;2023-04-15T09:31:50;41.13;;;29.25;;
45065;SDS011;30830;53.704;10.004;2023-04-15T09:34:16;38.28;;;27.05;;
45065;SDS011;30830;53.704;10.004;2023-04-15T09:39:11;36.95;;;26.52;;
45065;SDS011;30830;53.704;10.004;2023-04-15T09:41:37;43.38;;;28.08;;
45065;SDS011;30830;53.704;10.004;2023-04-15T09:44:03;35.15;;;25.42;;
45065;SDS011;30830;53.704;10.004;2023-04-15T09:46:44;37.42;;;26.35;;
45065;SDS011;30830;53.704;10.004;2023-04-15T09:49:11;37.08;;;25.58;;
45065;SDS011;30830;53.704;10.004;2023-04-15T09:51:37;36.55;;;24.70;;
45065;SDS011;30830;53.704;10.004;2023-04-15T09:54:02;33.25;;;24.27;;
45065;SDS011;30830;53.704;10.004;2023-04-15T09:56:35;34.33;;;24.10;;
45065;SDS011;30830;53.704;10.004;2023-04-15T09:59:05;35.03;;;23.13;;
45065;SDS011;30830;53.704;10.004;2023-04-15T10:01:31;36.25;;;24.25;;
45065;SDS011;30830;53.704;10.004;2023-04-15T10:03:57;31.58;;;23.83;;
45065;SDS011;30830;53.704;10.004;2023-04-15T10:06:26;32.72;;;23.70;;
45065;SDS011;30830;53.704;10.004;2023-04-15T10:08:53;33.33;;;24.05;;
45065;SDS011;30830;53.704;10.004;2023-04-15T10:11:19;29.65;;;21.80;;
45065;SDS011;30830;53.704;10.004;2023-04-15T10:13:48;30.98;;;21.60;;
45065;SDS011;30830;53.704;10.004;2023-04-15T10:16:15;28.63;;;21.98;;
45065;SDS011;30830;53.704;10.004;2023-04-15T10:18:44;26.55;;;21.73;;
45065;SDS011;30830;53.704;10.004;2023-04-15T10:21:11;29.85;;;20.40;;
45065;SDS011;30830;53.704;10.004;2023-04-15T10:23:39;27.45;;;21.02;;
45065;SDS011;30830;53.704;10.004;2023-04-15T10:26:05;28.08;;;21.10;;
45065;SDS011;30830;53.704;10.004;2023-04-15T10:28:32;23.85;;;18.83;;
45065;SDS011;30830;53.704;10.004;2023-04-15T10:30:58;27.85;;;19.75;;
45065;SDS011;30830;53.704;10.004;2023-04-15T10:33:25;24.25;;;17.48;;
45065;SDS011;30830;53.704;10.004;2023-04-15T10:35:53;23.95;;;17.65;;
45065;SDS011;30830;53.704;10.004;2023-04-15T10:41:12;20.60;;;17.30;;
45065;SDS011;30830;53.704;10.004;2023-04-15T10:46:44;20.30;;;15.30;;
45065;SDS011;30830;53.704;10.004;2023-04-15T10:51:40;18.77;;;15.23;;
45065;SDS011;30830;53.704;10.004;2023-04-15T10:54:08;15.82;;;13.70;;
45065;SDS011;30830;53.704;10.004;2023-04-15T10:56:40;16.50;;;13.07;;
45065;SDS011;30830;53.704;10.004;2023-04-15T10:59:09;14.93;;;12.38;;
45065;SDS011;30830;53.704;10.004;2023-04-15T11:01:50;14.25;;;11.90;;
45065;SDS011;30830;53.704;10.004;2023-04-15T11:09:59;12.45;;;11.15;;
45065;SDS011;30830;53.704;10.004;2023-04-15T11:12:35;12.32;;;9.73;;
45065;SDS011;30830;53.704;10.004;2023-04-15T11:20:34;10.93;;;9.52;;
45065;SDS011;30830;53.704;10.004;2023-04-15T11:23:00;11.80;;;10.48;;
45065;SDS011;30830;53.704;10.004;2023-04-15T11:25:27;10.13;;;8.85;;
45065;SDS011;30830;53.704;10.004;2023-04-15T11:27:55;9.70;;;7.88;;
45065;SDS011;30830;53.704;10.004;2023-04-15T11:30:22;9.48;;;8.05;;
45065;SDS011;30830;53.704;10.004;2023-04-15T11:32:49;9.02;;;7.40;;
45065;SDS011;30830;53.704;10.004;2023-04-15T11:35:16;11.07;;;8.65;;
45065;SDS011;30830;53.704;10.004;2023-04-15T11:37:45;9.55;;;7.75;;
45065;SDS011;30830;53.704;10.004;2023-04-15T11:40:12;11.52;;;8.95;;
45065;SDS011;30830;53.704;10.004;2023-04-15T11:42:39;9.45;;;8.45;;
45065;SDS011;30830;53.704;10.004;2023-04-15T11:45:05;13.13;;;9.23;;
45065;SDS011;30830;53.704;10.004;2023-04-15T11:47:35;9.77;;;8.65;;
45065;SDS011;30830;53.704;10.004;2023-04-15T11:52:41;9.32;;;7.97;;
45065;SDS011;30830;53.704;10.004;2023-04-15T11:55:19;8.80;;;7.75;;
45065;SDS011;30830;53.704;10.004;2023-04-15T11:57:45;8.48;;;7.68;;
45065;SDS011;30830;53.704;10.004;2023-04-15T12:00:11;8.43;;;7.57;;
45065;SDS011;30830;53.704;10.004;2023-04-15T12:02:37;9.35;;;7.45;;
45065;SDS011;30830;53.704;10.004;2023-04-15T12:05:03;10.73;;;7.93;;
45065;SDS011;30830;53.704;10.004;2023-04-15T12:07:32;10.27;;;7.88;;
45065;SDS011;30830;53.704;10.004;2023-04-15T12:09:58;10.93;;;8.02;;
45065;SDS011;30830;53.704;10.004;2023-04-15T12:12:27;9.98;;;7.97;;
45065;SDS011;30830;53.704;10.004;2023-04-15T12:14:53;9.23;;;7.65;;
45065;SDS011;30830;53.704;10.004;2023-04-15T12:17:21;10.18;;;8.07;;
45065;SDS011;30830;53.704;10.004;2023-04-15T12:19:47;11.23;;;8.45;;
45065;SDS011;30830;53.704;10.004;2023-04-15T12:22:15;9.73;;;8.45;;
45065;SDS011;30830;53.704;10.004;2023-04-15T12:24:42;8.80;;;7.18;;
45065;SDS011;30830;53.704;10.004;2023-04-15T12:27:11;9.02;;;8.10;;
45065;SDS011;30830;53.704;10.004;2023-04-15T12:29:38;12.63;;;9.32;;
45065;SDS011;30830;53.704;10.004;2023-04-15T12:32:05;11.23;;;8.52;;
45065;SDS011;30830;53.704;10.004;2023-04-15T12:34:33;8.55;;;7.07;;
45065;SDS011;30830;53.704;10.004;2023-04-15T12:37:01;11.55;;;7.95;;
45065;SDS011;30830;53.704;10.004;2023-04-15T12:39:33;10.00;;;8.93;;
45065;SDS011;30830;53.704;10.004;2023-04-15T12:42:00;8.90;;;8.05;;
45065;SDS011;30830;53.704;10.004;2023-04-15T12:44:28;11.43;;;8.98;;
45065;SDS011;30830;53.704;10.004;2023-04-15T12:46:54;10.15;;;8.95;;
45065;SDS011;30830;53.704;10.004;2023-04-15T12:49:20;10.05;;;9.05;;
45065;SDS011;30830;53.704;10.004;2023-04-15T12:51:56;10.48;;;8.82;;
45065;SDS011;30830;53.704;10.004;2023-04-15T12:54:24;11.10;;;9.30;;
45065;SDS011;30830;53.704;10.004;2023-04-15T12:56:50;9.98;;;8.85;;
45065;SDS011;30830;53.704;10.004;2023-04-15T12:59:16;9.88;;;8.55;;
45065;SDS011;30830;53.704;10.004;2023-04-15T13:01:42;10.18;;;8.80;;
45065;SDS011;30830;53.704;10.004;2023-04-15T13:04:09;11.15;;;8.85;;
45065;SDS011;30830;53.704;10.004;2023-04-15T13:06:35;9.65;;;8.65;;
45065;SDS011;30830;53.704;10.004;2023-04-15T13:09:01;10.02;;;9.02;;
45065;SDS011;30830;53.704;10.004;2023-04-15T13:11:27;10.00;;;8.43;;
45065;SDS011;30830;53.704;10.004;2023-04-15T13:13:58;9.45;;;8.13;;
45065;SDS011;30830;53.704;10.004;2023-04-15T13:16:25;9.25;;;7.38;;
45065;SDS011;30830;53.704;10.004;2023-04-15T13:18:51;9.70;;;7.95;;
45065;SDS011;30830;53.704;10.004;2023-04-15T13:21:16;9.80;;;8.38;;
45065;SDS011;30830;53.704;10.004;2023-04-15T13:23:43;9.70;;;8.20;;
45065;SDS011;30830;53.704;10.004;2023-04-15T13:26:08;9.25;;;7.88;;
45065;SDS011;30830;53.704;10.004;2023-04-15T13:28:34;8.68;;;7.53;;
45065;SDS011;30830;53.704;10.004;2023-04-15T13:31:00;8.77;;;7.32;;
45065;SDS011;30830;53.704;10.004;2023-04-15T13:33:26;8.18;;;6.88;;
45065;SDS011;30830;53.704;10.004;2023-04-15T13:35:51;7.88;;;6.82;;
45065;SDS011;30830;53.704;10.004;2023-04-15T13:38:17;9.13;;;7.75;;
45065;SDS011;30830;53.704;10.004;2023-04-15T13:40:43;9.27;;;7.68;;
45065;SDS011;30830;53.704;10.004;2023-04-15T13:43:08;9.73;;;8.20;;
45065;SDS011;30830;53.704;10.004;2023-04-15T13:45:34;11.32;;;7.50;;
45065;SDS011;30830;53.704;10.004;2023-04-15T13:48:00;12.38;;;8.65;;
45065;SDS011;30830;53.704;10.004;2023-04-15T13:50:26;11.75;;;7.95;;
45065;SDS011;30830;53.704;10.004;2023-04-15T13:52:52;8.65;;;7.53;;
45065;SDS011;30830;53.704;10.004;2023-04-15T13:55:18;9.45;;;7.63;;
45065;SDS011;30830;53.704;10.004;2023-04-15T13:57:43;10.48;;;7.90;;
45065;SDS011;30830;53.704;10.004;2023-04-15T14:00:09;9.73;;;7.15;;
45065;SDS011;30830;53.704;10.004;2023-04-15T14:02:35;8.55;;;7.60;;
45065;SDS011;30830;53.704;10.004;2023-04-15T14:05:01;9.93;;;8.93;;
45065;SDS011;30830;53.704;10.004;2023-04-15T14:07:28;9.90;;;7.95;;
45065;SDS011;30830;53.704;10.004;2023-04-15T14:09:54;9.35;;;8.43;;
45065;SDS011;30830;53.704;10.004;2023-04-15T14:12:20;9.00;;;8.07;;
45065;SDS011;30830;53.704;10.004;2023-04-15T14:14:46;10.65;;;8.55;;
45065;SDS011;30830;53.704;10.004;2023-04-15T14:17:11;9.18;;;8.27;;
45065;SDS011;30830;53.704;10.004;2023-04-15T14:19:37;12.38;;;8.60;;
45065;SDS011;30830;53.704;10.004;2023-04-15T14:22:02;11.65;;;8.95;;
45065;SDS011;30830;53.704;10.004;2023-04-15T14:24:28;11.00;;;8.38;;
45065;SDS011;30830;53.704;10.004;2023-04-15T14:26:54;8.75;;;7.88;;
45065;SDS011;30830;53.704;10.004;2023-04-15T14:29:20;11.15;;;8.95;;
45065;SDS011;30830;53.704;10.004;2023-04-15T14:31:46;9.65;;;8.52;;
45065;SDS011;30830;53.704;10.004;2023-04-15T14:34:13;13.02;;;9.23;;
45065;SDS011;30830;53.704;10.004;2023-04-15T14:36:39;9.32;;;8.25;;
45065;SDS011;30830;53.704;10.004;2023-04-15T14:39:06;10.32;;;8.60;;